CMB861 Details

Departure: RAFO Thumrait (OOTH)
Arrival: Diego Garcia (FJDG)
Route: KIVEL UM551 ANGAL MOXET L516 NKW
Notes: USTRANSCOM CONTRACT FLIGHT


Current Weather Information
No METAR available for OOTH.
FJDG 232355Z 10005KT 9999 FEW018 FEW250 27/25 A2983 RMK SLP098 8/101 T02730252 10279 20273 56007